Time;durP1;ratioP1;P1;durP2;ratioP2;P2;SDS_P1;SDS_P2;PMS_P1;PMS_P2;Temp;Humidity;BMP_temperature;BMP_pressure;BME280_temperature;BME280_humidity;BME280_pressure;Samples;Min_cycle;Max_cycle;Signal;HPM_P1;HPM_P2
2023/01/27 00:00:49;;;;;;;6.73;1.80;;;;;;;;;;5069511;28;20706;-73
2023/01/27 00:03:14;;;;;;;5.53;1.53;;;;;;;;;;5069691;28;20168;-72
2023/01/27 00:05:39;;;;;;;5.33;2.00;;;;;;;;;;5087884;28;20191;-73
2023/01/27 00:08:04;;;;;;;6.50;2.63;;;;;;;;;;5081101;28;20206;-73
2023/01/27 00:10:30;;;;;;;6.30;2.30;;;;;;;;;;5079047;28;20177;-72
2023/01/27 00:15:39;;;;;;;8.70;2.20;;;;;;;;;;5087784;28;20234;-71
2023/01/27 00:18:04;;;;;;;3.93;2.07;;;;;;;;;;5086666;28;20172;-73
2023/01/27 00:26:00;;;;;;;10.97;1.93;;;;;;;;;;5088913;28;20645;-72
2023/01/27 00:28:25;;;;;;;9.07;2.27;;;;;;;;;;5084053;28;20400;-72
2023/01/27 00:30:51;;;;;;;7.00;1.87;;;;;;;;;;5080853;28;20198;-72
2023/01/27 00:33:25;;;;;;;4.47;1.50;;;;;;;;;;5091661;28;20617;-72
2023/01/27 00:35:58;;;;;;;3.27;2.03;;;;;;;;;;5069107;28;20188;-74
2023/01/27 00:38:23;;;;;;;5.90;2.50;;;;;;;;;;5081052;28;20168;-72
2023/01/27 00:41:14;;;;;;;3.23;1.60;;;;;;;;;;5095901;28;20183;-72
2023/01/27 00:43:34;;;;;;;7.73;2.07;;;;;;;;;;5096952;28;20172;-73
2023/01/27 00:46:00;;;;;;;9.43;2.13;;;;;;;;;;5076265;28;20196;-73
2023/01/27 00:48:25;;;;;;;8.87;2.13;;;;;;;;;;5090528;28;20221;-72
2023/01/27 00:50:50;;;;;;;7.90;2.13;;;;;;;;;;5079029;28;20229;-73
2023/01/27 00:53:15;;;;;;;5.30;2.13;;;;;;;;;;5079148;28;20184;-73
2023/01/27 00:55:40;;;;;;;3.40;2.17;;;;;;;;;;5080901;28;20187;-74
2023/01/27 00:58:06;;;;;;;7.50;1.73;;;;;;;;;;5090340;28;20567;-73
2023/01/27 01:00:31;;;;;;;4.57;2.77;;;;;;;;;;5082305;28;20248;-73
2023/01/27 01:02:56;;;;;;;10.87;2.40;;;;;;;;;;5090464;28;20185;-73
2023/01/27 01:05:21;;;;;;;6.30;1.97;;;;;;;;;;5084329;28;20199;-73
2023/01/27 01:07:46;;;;;;;6.80;2.50;;;;;;;;;;5085493;28;20180;-73
2023/01/27 01:10:11;;;;;;;3.17;1.40;;;;;;;;;;5082695;28;20188;-73
2023/01/27 01:12:37;;;;;;;3.87;1.63;;;;;;;;;;5081638;28;20621;-73
2023/01/27 01:15:02;;;;;;;6.83;2.20;;;;;;;;;;5081841;28;20228;-73
2023/01/27 01:17:27;;;;;;;8.27;2.67;;;;;;;;;;5093142;28;20198;-73
2023/01/27 01:19:52;;;;;;;7.87;1.87;;;;;;;;;;5096149;28;20179;-73
2023/01/27 01:22:17;;;;;;;11.57;3.23;;;;;;;;;;5086746;28;20711;-73
2023/01/27 01:24:43;;;;;;;6.43;2.20;;;;;;;;;;5086638;28;20208;-72
2023/01/27 01:27:08;;;;;;;5.73;2.67;;;;;;;;;;5094577;28;20203;-72
2023/01/27 01:29:33;;;;;;;9.10;3.10;;;;;;;;;;5100706;28;20194;-71
2023/01/27 01:31:58;;;;;;;9.33;2.53;;;;;;;;;;5093744;28;20204;-72
2023/01/27 01:34:23;;;;;;;4.93;2.73;;;;;;;;;;5092277;28;20179;-74
2023/01/27 01:36:49;;;;;;;6.87;3.93;;;;;;;;;;5096009;28;20184;-72
2023/01/27 01:39:14;;;;;;;7.83;3.33;;;;;;;;;;5100019;28;20172;-73
2023/01/27 01:41:39;;;;;;;5.73;3.50;;;;;;;;;;5089834;28;20657;-73
2023/01/27 01:44:21;;;;;;;12.60;3.77;;;;;;;;;;5089057;28;20222;-73
2023/01/27 01:46:46;;;;;;;6.50;3.43;;;;;;;;;;5093099;28;20641;-72
2023/01/27 01:49:11;;;;;;;4.10;3.00;;;;;;;;;;5099368;28;20296;-72
2023/01/27 01:51:44;;;;;;;6.67;4.00;;;;;;;;;;5089989;28;20658;-72
2023/01/27 01:54:17;;;;;;;9.53;4.07;;;;;;;;;;5099349;28;20241;-72
2023/01/27 01:56:42;;;;;;;9.43;3.43;;;;;;;;;;5090407;28;20188;-72
2023/01/27 01:59:14;;;;;;;10.70;4.03;;;;;;;;;;5094353;28;20588;-73
2023/01/27 02:01:39;;;;;;;6.83;3.20;;;;;;;;;;5094408;28;20191;-72
2023/01/27 02:04:07;;;;;;;9.70;4.40;;;;;;;;;;5075350;28;20176;-72
2023/01/27 02:06:37;;;;;;;11.40;4.40;;;;;;;;;;5083482;28;20279;-72
2023/01/27 02:09:02;;;;;;;7.20;4.27;;;;;;;;;;5086665;28;20181;-72
2023/01/27 02:11:27;;;;;;;6.60;3.97;;;;;;;;;;5077878;28;20670;-72
2023/01/27 02:13:53;;;;;;;6.70;3.43;;;;;;;;;;5084689;28;20176;-72
2023/01/27 02:16:18;;;;;;;9.17;4.20;;;;;;;;;;5087243;28;20425;-72
2023/01/27 02:18:43;;;;;;;10.07;4.20;;;;;;;;;;5080983;28;20173;-72
2023/01/27 02:21:09;;;;;;;7.47;4.20;;;;;;;;;;5099566;28;20180;-72
2023/01/27 02:23:49;;;;;;;8.90;4.47;;;;;;;;;;5061659;28;20242;-72
2023/01/27 02:26:17;;;;;;;7.83;4.50;;;;;;;;;;5093318;28;20196;-72
2023/01/27 02:28:43;;;;;;;8.73;4.00;;;;;;;;;;5082432;28;20595;-72
2023/01/27 02:31:08;;;;;;;8.57;4.30;;;;;;;;;;5094740;28;20188;-72
2023/01/27 02:33:33;;;;;;;12.60;4.17;;;;;;;;;;5088030;28;20169;-72
2023/01/27 02:36:10;;;;;;;10.67;4.57;;;;;;;;;;5087231;28;20208;-72
2023/01/27 02:38:38;;;;;;;9.13;4.60;;;;;;;;;;5085251;28;20199;-72
2023/01/27 02:41:09;;;;;;;13.10;5.03;;;;;;;;;;5071184;28;20670;-72
2023/01/27 02:43:35;;;;;;;10.83;4.27;;;;;;;;;;5066905;28;20181;-72
2023/01/27 02:46:00;;;;;;;7.43;4.33;;;;;;;;;;5089973;28;20279;-72
2023/01/27 02:48:25;;;;;;;9.27;4.73;;;;;;;;;;5087924;28;20528;-73
2023/01/27 02:50:50;;;;;;;7.40;4.17;;;;;;;;;;5083666;28;20181;-74
2023/01/27 02:53:15;;;;;;;12.13;4.87;;;;;;;;;;5091563;28;20705;-73
2023/01/27 02:55:41;;;;;;;9.93;4.43;;;;;;;;;;5087919;28;20201;-73
2023/01/27 02:58:06;;;;;;;10.90;5.17;;;;;;;;;;5090577;28;20173;-72
2023/01/27 03:00:31;;;;;;;7.03;4.63;;;;;;;;;;5093251;28;20217;-72
2023/01/27 03:02:56;;;;;;;11.13;5.07;;;;;;;;;;5073374;28;20664;-72
2023/01/27 03:05:22;;;;;;;11.47;5.23;;;;;;;;;;5079956;28;20197;-73
2023/01/27 03:07:47;;;;;;;8.07;4.93;;;;;;;;;;5074088;28;20551;-72
2023/01/27 03:10:12;;;;;;;11.97;5.97;;;;;;;;;;5079632;28;20185;-73
2023/01/27 03:12:37;;;;;;;13.37;4.93;;;;;;;;;;5084407;28;20221;-72
2023/01/27 03:20:30;;;;;;;8.83;5.87;;;;;;;;;;5079521;28;20289;-72
2023/01/27 03:22:55;;;;;;;14.70;6.47;;;;;;;;;;5084370;28;20180;-73
2023/01/27 03:25:20;;;;;;;12.00;6.27;;;;;;;;;;5075568;28;20576;-72
2023/01/27 03:27:46;;;;;;;12.57;6.33;;;;;;;;;;5063477;28;20172;-73
2023/01/27 03:30:11;;;;;;;12.83;7.07;;;;;;;;;;5080081;28;20653;-73
2023/01/27 03:32:36;;;;;;;11.77;7.07;;;;;;;;;;5076451;28;20196;-72
2023/01/27 03:35:02;;;;;;;15.07;7.17;;;;;;;;;;5085871;28;20712;-73
2023/01/27 03:48:27;;;;;;;13.80;7.53;;;;;;;;;;5080877;28;20206;-73
2023/01/27 03:50:55;;;;;;;11.13;6.77;;;;;;;;;;5075402;28;20191;-73
2023/01/27 03:53:21;;;;;;;11.63;6.63;;;;;;;;;;5060715;28;20177;-72
2023/01/27 03:55:46;;;;;;;12.07;6.87;;;;;;;;;;5095265;28;20207;-72
2023/01/27 03:58:32;;;;;;;12.40;7.83;;;;;;;;;;5088986;28;20172;-72
2023/01/27 04:00:59;;;;;;;12.67;8.00;;;;;;;;;;5089812;28;20188;-72
2023/01/27 04:08:55;;;;;;;10.37;6.57;;;;;;;;;;5084724;28;20244;-72
2023/01/27 04:14:05;;;;;;;11.13;6.83;;;;;;;;;;5081156;28;20698;-72
2023/01/27 04:16:30;;;;;;;10.10;6.43;;;;;;;;;;5087502;22;20225;-76
2023/01/27 04:18:56;;;;;;;11.87;6.27;;;;;;;;;;5078108;28;20246;-76
2023/01/27 04:21:21;;;;;;;8.17;6.27;;;;;;;;;;5079932;28;20181;-76
2023/01/27 04:23:46;;;;;;;10.57;6.30;;;;;;;;;;5072742;28;20195;-77
2023/01/27 04:26:11;;;;;;;11.20;6.50;;;;;;;;;;5093617;28;20270;-76
2023/01/27 04:28:37;;;;;;;8.43;5.60;;;;;;;;;;5098846;28;20172;-76
2023/01/27 04:31:02;;;;;;;10.23;5.57;;;;;;;;;;5095025;28;20176;-77
2023/01/27 04:33:28;;;;;;;7.97;5.27;;;;;;;;;;5101340;28;20184;-76
2023/01/27 04:35:53;;;;;;;9.00;5.67;;;;;;;;;;5099129;28;20229;-76
2023/01/27 04:38:19;;;;;;;8.63;5.20;;;;;;;;;;5089918;28;20184;-77
2023/01/27 04:40:44;;;;;;;9.33;5.10;;;;;;;;;;5086871;28;20184;-77
2023/01/27 04:43:09;;;;;;;6.27;4.70;;;;;;;;;;5091531;28;20171;-77
2023/01/27 04:45:34;;;;;;;7.70;4.87;;;;;;;;;;5079260;28;20199;-77
2023/01/27 04:48:00;;;;;;;5.30;4.13;;;;;;;;;;5083068;28;20172;-77
2023/01/27 04:50:25;;;;;;;7.47;4.93;;;;;;;;;;5087730;28;20221;-77
2023/01/27 04:52:50;;;;;;;7.07;4.37;;;;;;;;;;5087526;28;20625;-77
2023/01/27 04:55:15;;;;;;;7.27;4.67;;;;;;;;;;5075948;28;20210;-77
2023/01/27 04:57:40;;;;;;;8.47;4.53;;;;;;;;;;5091387;28;20176;-77
2023/01/27 05:00:06;;;;;;;8.00;4.63;;;;;;;;;;5089936;28;20172;-77
2023/01/27 05:02:31;;;;;;;6.03;3.80;;;;;;;;;;5089549;28;20561;-77
2023/01/27 05:04:57;;;;;;;6.67;3.77;;;;;;;;;;5083765;28;20177;-77
2023/01/27 05:07:22;;;;;;;4.87;3.90;;;;;;;;;;5070071;28;20234;-77
2023/01/27 05:09:47;;;;;;;5.37;3.97;;;;;;;;;;5092697;28;20175;-77
2023/01/27 05:12:12;;;;;;;5.60;3.43;;;;;;;;;;5092647;28;20241;-77
2023/01/27 05:14:37;;;;;;;4.90;3.50;;;;;;;;;;5084264;28;20169;-77
2023/01/27 05:17:03;;;;;;;5.83;3.90;;;;;;;;;;5092264;28;20203;-77
2023/01/27 05:19:28;;;;;;;4.47;3.30;;;;;;;;;;5088985;28;20168;-77
2023/01/27 05:21:53;;;;;;;7.77;3.87;;;;;;;;;;5093049;28;20192;-77
2023/01/27 05:24:18;;;;;;;4.50;3.10;;;;;;;;;;5091790;28;20194;-77
2023/01/27 05:26:43;;;;;;;6.83;4.13;;;;;;;;;;5095253;28;20204;-77
2023/01/27 05:29:09;;;;;;;5.27;3.30;;;;;;;;;;5092809;28;20555;-77
2023/01/27 05:31:34;;;;;;;3.23;2.63;;;;;;;;;;5093008;28;20235;-77
2023/01/27 05:34:00;;;;;;;5.20;3.77;;;;;;;;;;5092521;28;20180;-77
2023/01/27 05:36:25;;;;;;;5.47;3.03;;;;;;;;;;5092539;28;20217;-77
2023/01/27 05:38:51;;;;;;;3.97;2.93;;;;;;;;;;5095664;28;20180;-77
2023/01/27 05:41:17;;;;;;;6.37;3.13;;;;;;;;;;5091112;28;20204;-77
2023/01/27 05:43:43;;;;;;;3.53;2.60;;;;;;;;;;5075516;28;20176;-77
2023/01/27 05:46:15;;;;;;;4.37;2.93;;;;;;;;;;5092396;28;20627;-78
2023/01/27 05:48:45;;;;;;;3.27;2.33;;;;;;;;;;5073877;28;20180;-78
2023/01/27 05:51:11;;;;;;;4.17;3.07;;;;;;;;;;5092297;28;20203;-77
2023/01/27 05:53:37;;;;;;;3.63;2.63;;;;;;;;;;5075938;28;20701;-77
2023/01/27 05:56:02;;;;;;;4.43;2.50;;;;;;;;;;5097294;28;20199;-77
2023/01/27 05:58:28;;;;;;;9.83;4.93;;;;;;;;;;5096184;28;20222;-77
2023/01/27 06:00:53;;;;;;;3.17;2.30;;;;;;;;;;5095844;28;20552;-77
2023/01/27 06:03:19;;;;;;;4.30;3.03;;;;;;;;;;5095655;28;20242;-77
2023/01/27 06:05:55;;;;;;;5.57;2.80;;;;;;;;;;5093308;28;20192;-77
2023/01/27 06:08:21;;;;;;;5.20;2.60;;;;;;;;;;5083349;28;20207;-77
2023/01/27 06:10:46;;;;;;;3.67;3.27;;;;;;;;;;5086468;28;20640;-77
2023/01/27 06:13:12;;;;;;;3.57;2.70;;;;;;;;;;5088402;28;20283;-77
2023/01/27 06:15:39;;;;;;;3.43;2.70;;;;;;;;;;5091720;28;20231;-77
2023/01/27 06:18:04;;;;;;;3.57;2.80;;;;;;;;;;5091409;28;20727;-77
2023/01/27 06:20:29;;;;;;;3.03;2.67;;;;;;;;;;5068547;28;20181;-77
2023/01/27 06:22:54;;;;;;;3.17;2.67;;;;;;;;;;5096189;28;20192;-77
2023/01/27 06:25:20;;;;;;;4.23;2.40;;;;;;;;;;5091414;28;20196;-77
2023/01/27 06:27:45;;;;;;;3.13;2.43;;;;;;;;;;5096858;28;20181;-77
2023/01/27 06:30:10;;;;;;;4.63;2.67;;;;;;;;;;5095417;28;20551;-77
2023/01/27 06:32:35;;;;;;;5.40;3.00;;;;;;;;;;5097171;28;20287;-77
2023/01/27 06:35:01;;;;;;;2.93;2.63;;;;;;;;;;5064850;28;20173;-77
2023/01/27 06:37:29;;;;;;;2.93;2.53;;;;;;;;;;5086272;28;20176;-77
2023/01/27 06:39:54;;;;;;;2.80;2.50;;;;;;;;;;5082217;28;20255;-77
2023/01/27 06:42:19;;;;;;;3.00;2.70;;;;;;;;;;5089953;28;20206;-77
2023/01/27 06:44:45;;;;;;;2.93;2.63;;;;;;;;;;5092624;28;20183;-77
2023/01/27 06:47:10;;;;;;;3.87;2.87;;;;;;;;;;5074039;28;20259;-77
2023/01/27 06:49:35;;;;;;;2.90;2.60;;;;;;;;;;5072907;28;20560;-77
2023/01/27 06:52:00;;;;;;;4.33;2.20;;;;;;;;;;5092133;28;20196;-77
2023/01/27 06:54:25;;;;;;;3.67;2.60;;;;;;;;;;5090734;28;20168;-77
2023/01/27 06:56:51;;;;;;;3.40;2.53;;;;;;;;;;5089207;28;20245;-77
2023/01/27 06:59:16;;;;;;;3.53;2.80;;;;;;;;;;5089416;28;20176;-77
2023/01/27 07:01:41;;;;;;;2.80;2.43;;;;;;;;;;5087580;28;20619;-77
2023/01/27 07:04:06;;;;;;;5.13;2.70;;;;;;;;;;5089927;28;20176;-76
2023/01/27 07:06:31;;;;;;;3.27;2.23;;;;;;;;;;5068670;28;20866;-77
2023/01/27 07:08:57;;;;;;;4.83;3.17;;;;;;;;;;5073408;28;20225;-77
2023/01/27 07:11:24;;;;;;;2.80;2.10;;;;;;;;;;5095361;28;20219;-77
2023/01/27 07:13:49;;;;;;;4.13;2.47;;;;;;;;;;5092824;28;20195;-77
2023/01/27 07:16:14;;;;;;;2.90;2.50;;;;;;;;;;5090160;28;20208;-76
2023/01/27 07:18:39;;;;;;;3.70;2.73;;;;;;;;;;5073201;28;20724;-77
2023/01/27 07:21:05;;;;;;;4.23;2.50;;;;;;;;;;5089978;28;20467;-77
2023/01/27 07:23:30;;;;;;;2.83;2.43;;;;;;;;;;5073188;28;20184;-77
2023/01/27 07:25:55;;;;;;;2.93;2.33;;;;;;;;;;5088133;28;20205;-76
2023/01/27 07:28:20;;;;;;;2.53;2.30;;;;;;;;;;5073380;28;20192;-77
2023/01/27 07:30:45;;;;;;;2.77;2.20;;;;;;;;;;5095770;28;20673;-77
2023/01/27 07:33:11;;;;;;;2.80;2.40;;;;;;;;;;5092013;28;20207;-76
2023/01/27 07:35:37;;;;;;;3.37;2.30;;;;;;;;;;5071639;28;20321;-77
2023/01/27 07:38:03;;;;;;;3.67;2.03;;;;;;;;;;5092024;28;20455;-77
2023/01/27 07:40:28;;;;;;;3.50;2.80;;;;;;;;;;5073267;28;20168;-76
2023/01/27 07:42:56;;;;;;;2.73;2.20;;;;;;;;;;5091888;28;20173;-77
2023/01/27 07:45:21;;;;;;;5.30;2.87;;;;;;;;;;5091616;28;20214;-77
2023/01/27 07:47:47;;;;;;;6.60;2.60;;;;;;;;;;5085555;28;20168;-77
2023/01/27 07:50:12;;;;;;;4.73;2.60;;;;;;;;;;5090760;28;20325;-78
2023/01/27 07:52:37;;;;;;;2.60;2.13;;;;;;;;;;5072713;28;20204;-78
2023/01/27 07:55:02;;;;;;;4.87;2.20;;;;;;;;;;5091171;28;20177;-77
2023/01/27 07:57:28;;;;;;;4.00;2.63;;;;;;;;;;5091674;28;20256;-77
2023/01/27 07:59:55;;;;;;;3.37;2.30;;;;;;;;;;5090595;28;20176;-76
2023/01/27 08:02:21;;;;;;;2.90;2.33;;;;;;;;;;5092327;28;20179;-75
2023/01/27 08:04:49;;;;;;;4.13;2.67;;;;;;;;;;5091700;28;20552;-76
2023/01/27 08:07:15;;;;;;;6.37;2.40;;;;;;;;;;5073002;28;20188;-77
2023/01/27 08:09:40;;;;;;;4.17;3.10;;;;;;;;;;5089726;28;20180;-77
2023/01/27 08:12:05;;;;;;;4.27;2.13;;;;;;;;;;5089543;28;20211;-78
2023/01/27 08:14:31;;;;;;;4.73;2.63;;;;;;;;;;5091259;28;20224;-78
2023/01/27 08:16:56;;;;;;;3.57;2.23;;;;;;;;;;5073180;28;20292;-78
2023/01/27 08:19:22;;;;;;;3.20;1.97;;;;;;;;;;5092255;28;20164;-78
2023/01/27 08:21:47;;;;;;;2.10;1.90;;;;;;;;;;5072153;28;20226;-77
2023/01/27 08:24:12;;;;;;;3.60;2.03;;;;;;;;;;5092063;28;20207;-77
2023/01/27 08:26:37;;;;;;;2.20;1.77;;;;;;;;;;5082491;28;20223;-77
2023/01/27 08:29:03;;;;;;;2.83;2.13;;;;;;;;;;5083016;28;20635;-78
2023/01/27 08:31:28;;;;;;;4.30;1.97;;;;;;;;;;5088833;28;20661;-77
2023/01/27 08:33:53;;;;;;;3.33;1.70;;;;;;;;;;5089469;28;20177;-78
2023/01/27 08:36:19;;;;;;;4.10;1.87;;;;;;;;;;5075756;28;20474;-78
2023/01/27 08:38:45;;;;;;;4.50;1.70;;;;;;;;;;5062925;28;20198;-78
2023/01/27 08:41:12;;;;;;;6.97;1.90;;;;;;;;;;5062854;28;20180;-75
2023/01/27 08:43:37;;;;;;;3.13;2.00;;;;;;;;;;5046277;28;20249;-75
2023/01/27 08:46:02;;;;;;;2.97;2.13;;;;;;;;;;5063824;28;20196;-77
2023/01/27 08:48:29;;;;;;;2.80;2.53;;;;;;;;;;5065232;28;20177;-74
2023/01/27 08:50:55;;;;;;;3.47;2.30;;;;;;;;;;5061398;28;20802;-75
2023/01/27 08:53:20;;;;;;;2.30;1.57;;;;;;;;;;5042730;28;20209;-74
2023/01/27 08:55:46;;;;;;;1.90;1.67;;;;;;;;;;5059311;28;20208;-78
2023/01/27 08:58:11;;;;;;;5.70;1.70;;;;;;;;;;5060110;28;20184;-77
2023/01/27 09:00:36;;;;;;;2.57;1.50;;;;;;;;;;5065548;28;20233;-74
2023/01/27 09:03:01;;;;;;;1.57;1.33;;;;;;;;;;5069432;28;20204;-74
2023/01/27 09:05:27;;;;;;;2.33;1.70;;;;;;;;;;5063014;28;20265;-76
2023/01/27 09:07:53;;;;;;;3.13;1.80;;;;;;;;;;5051093;28;20197;-76
2023/01/27 09:10:18;;;;;;;3.00;1.73;;;;;;;;;;5064345;28;20198;-74
2023/01/27 09:12:43;;;;;;;2.80;1.97;;;;;;;;;;5063479;28;20216;-73
2023/01/27 09:15:10;;;;;;;2.63;1.60;;;;;;;;;;5064408;28;20219;-73
2023/01/27 09:17:35;;;;;;;2.80;1.67;;;;;;;;;;5064280;28;21762;-74
2023/01/27 09:20:00;;;;;;;1.47;1.30;;;;;;;;;;5063920;28;20177;-75
2023/01/27 09:22:26;;;;;;;2.57;1.57;;;;;;;;;;5065247;28;20185;-75
2023/01/27 09:24:51;;;;;;;2.87;1.30;;;;;;;;;;5064250;28;20184;-77
2023/01/27 09:27:16;;;;;;;3.73;1.00;;;;;;;;;;5049285;28;20731;-73
2023/01/27 09:29:41;;;;;;;2.90;1.30;;;;;;;;;;5063083;28;20212;-75
2023/01/27 09:32:08;;;;;;;2.13;1.40;;;;;;;;;;5063871;28;20208;-75
2023/01/27 09:34:33;;;;;;;1.63;1.20;;;;;;;;;;5068235;28;20188;-75
2023/01/27 09:37:00;;;;;;;1.40;1.10;;;;;;;;;;5063527;28;20196;-75
2023/01/27 09:39:26;;;;;;;3.73;1.93;;;;;;;;;;5064748;28;20303;-76
2023/01/27 09:41:51;;;;;;;2.87;1.40;;;;;;;;;;5062688;28;20551;-75
2023/01/27 09:44:34;;;;;;;1.93;1.37;;;;;;;;;;5069799;28;20188;-76
2023/01/27 09:47:02;;;;;;;3.57;1.13;;;;;;;;;;5064797;28;20706;-75
2023/01/27 09:49:48;;;;;;;2.27;1.73;;;;;;;;;;5064976;28;20279;-75
2023/01/27 09:52:52;;;;;;;1.83;1.50;;;;;;;;;;5072210;28;20210;-75
2023/01/27 09:55:38;;;;;;;3.03;1.40;;;;;;;;;;4978609;28;20215;-76
2023/01/27 09:58:03;;;;;;;1.30;1.10;;;;;;;;;;4980111;28;20253;-75
2023/01/27 10:00:31;;;;;;;2.83;0.90;;;;;;;;;;5025600;28;20181;-75
2023/01/27 10:03:03;;;;;;;1.53;1.13;;;;;;;;;;5067322;28;20184;-75
2023/01/27 10:05:45;;;;;;;1.90;1.00;;;;;;;;;;5066724;28;20296;-77
2023/01/27 10:08:29;;;;;;;1.40;1.30;;;;;;;;;;5045069;28;20749;-78
2023/01/27 10:11:01;;;;;;;1.80;1.20;;;;;;;;;;5063643;28;20180;-79
2023/01/27 10:13:36;;;;;;;1.40;1.30;;;;;;;;;;5063900;28;20750;-78
2023/01/27 10:16:13;;;;;;;2.40;1.20;;;;;;;;;;5063226;28;20688;-78
2023/01/27 10:18:57;;;;;;;2.23;1.30;;;;;;;;;;5060865;28;20179;-76
2023/01/27 10:21:33;;;;;;;2.53;2.00;;;;;;;;;;5050386;28;20188;-75
2023/01/27 10:24:13;;;;;;;2.07;1.50;;;;;;;;;;5060301;28;20188;-76
2023/01/27 10:26:38;;;;;;;3.10;2.13;;;;;;;;;;5060766;28;20200;-76
2023/01/27 10:29:22;;;;;;;4.60;1.60;;;;;;;;;;5063812;28;20191;-75
2023/01/27 10:32:06;;;;;;;3.40;1.50;;;;;;;;;;5068406;28;20203;-76
2023/01/27 10:34:34;;;;;;;4.67;1.90;;;;;;;;;;5062670;28;20954;-77
2023/01/27 10:37:08;;;;;;;2.73;1.70;;;;;;;;;;5062970;28;20266;-73
2023/01/27 10:39:52;;;;;;;2.43;1.60;;;;;;;;;;5061188;28;20205;-76
2023/01/27 10:42:37;;;;;;;3.13;1.63;;;;;;;;;;5063293;28;20183;-77
2023/01/27 10:45:23;;;;;;;2.50;2.00;;;;;;;;;;5062781;28;20340;-75
2023/01/27 10:48:05;;;;;;;2.47;1.73;;;;;;;;;;5059984;28;20686;-74
2023/01/27 10:50:37;;;;;;;2.33;1.70;;;;;;;;;;5064202;28;20184;-74
2023/01/27 10:53:02;;;;;;;5.40;1.77;;;;;;;;;;5068665;28;20228;-73
2023/01/27 10:55:41;;;;;;;1.93;1.73;;;;;;;;;;5062067;28;20638;-75
2023/01/27 10:58:19;;;;;;;1.90;1.50;;;;;;;;;;5059132;28;20229;-75
2023/01/27 11:00:46;;;;;;;2.17;1.80;;;;;;;;;;5083150;22;20233;-71
2023/01/27 11:03:22;;;;;;;3.63;2.00;;;;;;;;;;5033113;28;20181;-73
2023/01/27 11:05:49;;;;;;;2.43;1.83;;;;;;;;;;5032051;28;20671;-72
2023/01/27 11:08:16;;;;;;;2.97;1.90;;;;;;;;;;5029265;28;20193;-73
2023/01/27 11:11:42;;;;;;;2.37;1.60;;;;;;;;;;5031249;28;20206;-71
2023/01/27 11:13:29;;;;;;;3.03;1.97;;;;;;;;;;5029935;28;20233;-72
2023/01/27 11:15:55;;;;;;;2.20;1.70;;;;;;;;;;5031670;28;20792;-72
2023/01/27 11:18:25;;;;;;;5.50;2.37;;;;;;;;;;5030331;28;20756;-72
2023/01/27 11:20:56;;;;;;;3.03;1.67;;;;;;;;;;5030363;28;20209;-72
2023/01/27 11:23:25;;;;;;;3.00;1.90;;;;;;;;;;5030555;28;20231;-72
2023/01/27 11:26:07;;;;;;;3.13;2.10;;;;;;;;;;5030044;28;20586;-72
2023/01/27 11:28:41;;;;;;;3.57;2.00;;;;;;;;;;5030937;28;20178;-71
2023/01/27 11:31:21;;;;;;;3.83;2.20;;;;;;;;;;5030184;28;20294;-71
2023/01/27 11:33:57;;;;;;;1.93;1.57;;;;;;;;;;5031448;28;20312;-72
2023/01/27 11:36:23;;;;;;;2.57;1.90;;;;;;;;;;5030677;28;20188;-72
2023/01/27 11:38:48;;;;;;;3.27;1.97;;;;;;;;;;5031108;28;20189;-71
2023/01/27 11:41:13;;;;;;;2.80;2.00;;;;;;;;;;5028617;28;20205;-72
2023/01/27 11:43:39;;;;;;;2.47;1.80;;;;;;;;;;5026361;28;20188;-72
2023/01/27 11:46:05;;;;;;;3.73;2.10;;;;;;;;;;5028642;28;20186;-71
2023/01/27 11:48:35;;;;;;;4.53;1.80;;;;;;;;;;5030727;28;20197;-73
2023/01/27 11:51:02;;;;;;;2.73;2.23;;;;;;;;;;5034204;28;20232;-71
2023/01/27 11:53:30;;;;;;;2.83;2.40;;;;;;;;;;5035734;28;20227;-71
2023/01/27 11:55:59;;;;;;;2.50;2.10;;;;;;;;;;5028418;28;20666;-71
2023/01/27 11:58:26;;;;;;;3.80;1.90;;;;;;;;;;5013208;28;20186;-70
2023/01/27 12:00:56;;;;;;;3.20;2.03;;;;;;;;;;5029599;28;20220;-71
2023/01/27 12:03:40;;;;;;;6.13;2.70;;;;;;;;;;5031499;28;20188;-71
2023/01/27 12:06:10;;;;;;;2.97;1.80;;;;;;;;;;5029563;28;20177;-71
2023/01/27 12:08:43;;;;;;;4.53;2.20;;;;;;;;;;5030214;28;20212;-71
2023/01/27 12:11:16;;;;;;;4.27;2.90;;;;;;;;;;5029506;28;21804;-71
2023/01/27 12:13:46;;;;;;;2.67;2.23;;;;;;;;;;5030376;28;20189;-72
2023/01/27 12:16:12;;;;;;;3.67;2.73;;;;;;;;;;5025946;28;20274;-71
2023/01/27 12:18:46;;;;;;;2.60;2.30;;;;;;;;;;5027589;28;20181;-71
2023/01/27 12:21:12;;;;;;;4.40;2.33;;;;;;;;;;5029671;28;20204;-72
2023/01/27 12:23:46;;;;;;;3.63;2.33;;;;;;;;;;5028150;28;21667;-71
2023/01/27 12:26:11;;;;;;;4.20;2.23;;;;;;;;;;5030288;28;20220;-71
2023/01/27 12:28:40;;;;;;;5.30;2.63;;;;;;;;;;5029481;28;20260;-73
2023/01/27 12:31:34;;;;;;;3.53;2.47;;;;;;;;;;5030091;28;20206;-71
2023/01/27 12:34:01;;;;;;;3.70;2.67;;;;;;;;;;5009626;28;20856;-72
2023/01/27 12:36:27;;;;;;;3.73;2.30;;;;;;;;;;5029149;28;20446;-72
2023/01/27 12:38:59;;;;;;;3.33;2.37;;;;;;;;;;5029851;28;20394;-72
2023/01/27 12:41:26;;;;;;;3.43;2.50;;;;;;;;;;5029785;28;20209;-71
2023/01/27 12:44:14;;;;;;;3.73;2.50;;;;;;;;;;5030708;28;20177;-72
2023/01/27 12:46:41;;;;;;;3.90;2.90;;;;;;;;;;5016665;28;22468;-71
2023/01/27 12:49:09;;;;;;;5.20;2.50;;;;;;;;;;5029520;28;20323;-71
2023/01/27 12:51:39;;;;;;;3.63;2.30;;;;;;;;;;5025143;28;20213;-72
2023/01/27 12:54:34;;;;;;;3.50;2.30;;;;;;;;;;5030469;28;20178;-71
2023/01/27 12:57:04;;;;;;;5.57;2.80;;;;;;;;;;5008484;28;20279;-72
2023/01/27 12:59:29;;;;;;;4.10;2.63;;;;;;;;;;5001961;28;20182;-71
2023/01/27 13:01:59;;;;;;;2.90;2.10;;;;;;;;;;5027999;28;20229;-72
2023/01/27 13:04:25;;;;;;;3.40;2.27;;;;;;;;;;5011488;28;20225;-71
2023/01/27 13:06:51;;;;;;;3.70;2.50;;;;;;;;;;5029386;28;20186;-72
2023/01/27 13:09:25;;;;;;;2.37;1.93;;;;;;;;;;5027350;28;20196;-72
2023/01/27 13:11:51;;;;;;;2.87;2.07;;;;;;;;;;5028898;28;20350;-73
2023/01/27 13:14:17;;;;;;;4.43;2.13;;;;;;;;;;5029123;28;20219;-71
2023/01/27 13:16:57;;;;;;;1.60;1.40;;;;;;;;;;5029427;28;20178;-71
2023/01/27 13:19:34;;;;;;;2.90;1.90;;;;;;;;;;5029072;28;20186;-72
2023/01/27 13:22:01;;;;;;;2.10;1.70;;;;;;;;;;5005668;28;20209;-72
2023/01/27 13:24:38;;;;;;;3.03;1.63;;;;;;;;;;5016192;28;20182;-71
2023/01/27 13:27:05;;;;;;;1.50;1.40;;;;;;;;;;5028453;28;20182;-72
2023/01/27 13:29:32;;;;;;;1.90;1.40;;;;;;;;;;5026991;28;20193;-72
2023/01/27 13:32:00;;;;;;;3.23;2.33;;;;;;;;;;5028312;28;20218;-71
2023/01/27 13:34:29;;;;;;;2.80;1.90;;;;;;;;;;5008602;28;20236;-72
2023/01/27 13:36:59;;;;;;;4.17;1.87;;;;;;;;;;5028907;28;20178;-71
2023/01/27 13:39:25;;;;;;;2.03;1.83;;;;;;;;;;5016353;28;20628;-71
2023/01/27 13:42:03;;;;;;;1.97;1.77;;;;;;;;;;5027501;28;20213;-70
2023/01/27 13:44:35;;;;;;;3.40;2.67;;;;;;;;;;5035370;28;20182;-71
2023/01/27 13:47:03;;;;;;;4.53;2.20;;;;;;;;;;5016175;28;20577;-72
2023/01/27 13:49:41;;;;;;;3.30;2.10;;;;;;;;;;5020632;28;20211;-72
2023/01/27 13:52:06;;;;;;;3.70;2.00;;;;;;;;;;5038355;28;20197;-71
2023/01/27 13:54:32;;;;;;;2.37;1.70;;;;;;;;;;5032503;28;20189;-72
2023/01/27 13:57:03;;;;;;;3.33;2.10;;;;;;;;;;5030952;28;20234;-72
2023/01/27 13:59:44;;;;;;;2.73;1.83;;;;;;;;;;5031707;28;20176;-73
2023/01/27 14:02:42;;;;;;;6.27;2.20;;;;;;;;;;5032656;28;20225;-74
2023/01/27 14:05:26;;;;;;;6.70;1.70;;;;;;;;;;4986207;28;20228;-73
2023/01/27 14:08:07;;;;;;;2.20;1.77;;;;;;;;;;5030839;28;20225;-72
2023/01/27 14:10:38;;;;;;;2.60;2.00;;;;;;;;;;5006604;28;20233;-72
2023/01/27 14:13:09;;;;;;;3.30;2.17;;;;;;;;;;5012131;28;20694;-73
2023/01/27 14:15:54;;;;;;;3.00;2.10;;;;;;;;;;5008070;28;20186;-72
2023/01/27 14:18:34;;;;;;;2.10;1.83;;;;;;;;;;5029020;28;20209;-72
2023/01/27 14:21:14;;;;;;;2.63;1.73;;;;;;;;;;5028176;28;20208;-72
2023/01/27 14:24:00;;;;;;;2.70;2.00;;;;;;;;;;5030794;28;20201;-73
2023/01/27 14:26:37;;;;;;;2.33;1.80;;;;;;;;;;5022330;28;20647;-73
2023/01/27 14:29:02;;;;;;;3.80;2.50;;;;;;;;;;5029580;28;20274;-73
2023/01/27 14:31:46;;;;;;;2.60;1.90;;;;;;;;;;5029723;28;20939;-73
2023/01/27 14:34:26;;;;;;;3.90;2.00;;;;;;;;;;5033148;28;20198;-73
2023/01/27 14:36:59;;;;;;;2.73;2.20;;;;;;;;;;5030676;28;20185;-71
2023/01/27 14:39:51;;;;;;;2.77;2.20;;;;;;;;;;5031165;28;20344;-72
2023/01/27 14:42:26;;;;;;;2.63;1.87;;;;;;;;;;5024000;28;20217;-71
2023/01/27 14:45:01;;;;;;;2.37;2.00;;;;;;;;;;5035541;28;20207;-72
2023/01/27 14:47:29;;;;;;;4.03;2.03;;;;;;;;;;5034663;28;20266;-72
2023/01/27 14:50:19;;;;;;;4.47;2.53;;;;;;;;;;5030395;28;20181;-71
2023/01/27 14:53:00;;;;;;;3.43;2.07;;;;;;;;;;5030415;28;20201;-72
2023/01/27 14:55:37;;;;;;;5.17;2.10;;;;;;;;;;5033180;28;20562;-71
2023/01/27 14:58:02;;;;;;;2.40;1.87;;;;;;;;;;5031150;28;20278;-71
2023/01/27 15:00:40;;;;;;;2.00;1.80;;;;;;;;;;5032703;28;20217;-72
2023/01/27 15:03:23;;;;;;;3.37;2.17;;;;;;;;;;5033278;28;20655;-71
2023/01/27 15:05:54;;;;;;;3.30;2.10;;;;;;;;;;5029612;28;20181;-72
2023/01/27 15:08:25;;;;;;;2.97;2.03;;;;;;;;;;5005455;28;20247;-72
2023/01/27 15:10:55;;;;;;;2.63;1.90;;;;;;;;;;5029787;28;20252;-71
2023/01/27 15:13:23;;;;;;;2.40;2.00;;;;;;;;;;5030360;28;20301;-72
2023/01/27 15:15:48;;;;;;;2.33;1.73;;;;;;;;;;5029381;28;20189;-72
2023/01/27 15:18:32;;;;;;;3.20;2.13;;;;;;;;;;5005817;28;20189;-72
2023/01/27 15:20:59;;;;;;;4.37;2.57;;;;;;;;;;5030755;28;20542;-72
2023/01/27 15:23:31;;;;;;;2.43;1.80;;;;;;;;;;5030263;28;20177;-71